Time;durP1;ratioP1;P1;durP2;ratioP2;P2;SDS_P1;SDS_P2;PMS_P1;PMS_P2;Temp;Humidity;BMP_temperature;BMP_pressure;BME280_temperature;BME280_humidity;BME280_pressure;Samples;Min_cycle;Max_cycle;Signal;HPM_P1;HPM_P2
2021/09/25 00:00:30;;;;;;;16.00;14.00;;;;;;;9.29;100.00;96271.97;1020944;29;20024;-49
2021/09/25 00:01:01;;;;;;;18.40;13.88;;;;;;;9.28;100.00;96274.66;1027279;28;20023;-51
2021/09/25 00:01:32;;;;;;;15.88;13.23;;;;;;;9.28;100.00;96277.28;1033541;28;20320;-50
2021/09/25 00:02:03;;;;;;;16.58;13.40;;;;;;;9.27;100.00;96281.66;1032712;28;20018;-50
2021/09/25 00:02:33;;;;;;;19.00;14.10;;;;;;;9.26;100.00;96279.97;1024803;29;20139;-49
2021/09/25 00:03:05;;;;;;;16.83;14.07;;;;;;;9.24;100.00;96279.22;1028699;28;20078;-50
2021/09/25 00:03:35;;;;;;;17.85;14.05;;;;;;;9.25;100.00;96285.28;1020894;29;20024;-51
2021/09/25 00:04:06;;;;;;;15.57;13.82;;;;;;;9.24;100.00;96286.22;1032925;28;20289;-51
2021/09/25 00:04:37;;;;;;;18.15;14.25;;;;;;;9.24;100.00;96289.69;1029013;28;20114;-49
2021/09/25 00:05:08;;;;;;;17.80;14.07;;;;;;;9.22;100.00;96283.72;1028893;28;20034;-52
2021/09/25 00:05:39;;;;;;;18.55;14.77;;;;;;;9.22;100.00;96288.09;1025257;28;20113;-51
2021/09/25 00:06:10;;;;;;;18.92;14.05;;;;;;;9.22;100.00;96290.72;1025167;28;20275;-50
2021/09/25 00:06:41;;;;;;;17.40;14.30;;;;;;;9.21;100.00;96291.63;1029202;28;20437;-49
2021/09/25 00:07:12;;;;;;;17.30;14.00;;;;;;;9.19;100.00;96293.50;1029445;28;20050;-49
2021/09/25 00:07:42;;;;;;;17.17;14.57;;;;;;;9.17;100.00;96287.53;1029077;28;20022;-51
2021/09/25 00:08:13;;;;;;;19.80;15.18;;;;;;;9.13;100.00;96294.72;1028948;28;20317;-49
2021/09/25 00:08:44;;;;;;;19.45;14.43;;;;;;;9.11;100.00;96294.78;1025094;28;20023;-49
2021/09/25 00:09:14;;;;;;;18.52;14.80;;;;;;;9.11;100.00;96288.72;1028543;28;20498;-49
2021/09/25 00:09:45;;;;;;;17.67;13.43;;;;;;;9.09;100.00;96288.81;1036892;28;20491;-50
2021/09/25 00:10:16;;;;;;;17.85;13.82;;;;;;;9.10;100.00;96289.66;1028705;28;20425;-49
2021/09/25 00:10:46;;;;;;;16.58;14.30;;;;;;;9.07;100.00;96287.22;1024785;29;20026;-49
2021/09/25 00:11:17;;;;;;;18.52;14.93;;;;;;;9.08;100.00;96299.34;1024950;28;20019;-49
2021/09/25 00:11:48;;;;;;;18.60;14.30;;;;;;;9.06;100.00;96296.81;1024951;28;20030;-51
2021/09/25 00:12:18;;;;;;;16.58;13.80;;;;;;;9.05;100.00;96295.16;1024860;29;20198;-49
2021/09/25 00:12:50;;;;;;;19.10;14.18;;;;;;;9.05;100.00;96292.53;1024904;28;20023;-49
2021/09/25 00:13:21;;;;;;;19.30;15.00;;;;;;;9.04;100.00;96293.47;1024982;28;20027;-49
2021/09/25 00:13:52;;;;;;;18.15;14.38;;;;;;;9.02;100.00;96300.56;1028189;28;20262;-49
2021/09/25 00:14:23;;;;;;;17.15;14.90;;;;;;;9.03;100.00;96294.41;1027959;28;20274;-49
2021/09/25 00:14:54;;;;;;;18.27;15.43;;;;;;;9.00;100.00;96297.19;1028574;28;20286;-50
2021/09/25 00:15:25;;;;;;;18.67;14.95;;;;;;;9.00;100.00;96293.75;1032552;28;20018;-49
2021/09/25 00:15:55;;;;;;;16.60;13.80;;;;;;;8.98;100.00;96296.44;1033086;28;20018;-50
2021/09/25 00:16:26;;;;;;;18.45;14.32;;;;;;;9.01;100.00;96303.25;1028657;28;20293;-49
2021/09/25 00:16:57;;;;;;;17.75;14.02;;;;;;;9.01;100.00;96293.66;1028959;28;20062;-50
2021/09/25 00:17:28;;;;;;;18.98;14.95;;;;;;;9.03;100.00;96298.78;1029112;28;20026;-50
2021/09/25 00:17:59;;;;;;;19.50;14.52;;;;;;;9.03;100.00;96296.16;1033396;28;20028;-50
2021/09/25 00:18:30;;;;;;;20.25;15.07;;;;;;;9.03;100.00;96299.63;1041240;28;20025;-49
2021/09/25 00:19:01;;;;;;;17.23;14.68;;;;;;;9.05;100.00;96300.38;1040914;28;20280;-50
2021/09/25 00:19:33;;;;;;;18.38;15.02;;;;;;;9.02;100.00;96297.94;1040836;28;20053;-50
2021/09/25 00:20:05;;;;;;;18.27;14.60;;;;;;;8.99;100.00;96295.53;1040947;28;20347;-49
2021/09/25 00:20:36;;;;;;;20.40;15.52;;;;;;;8.96;100.00;96295.69;1028573;28;20278;-51
2021/09/25 00:21:07;;;;;;;21.73;15.32;;;;;;;8.97;100.00;96301.75;1024897;29;20270;-49
2021/09/25 00:21:39;;;;;;;19.40;14.80;;;;;;;8.83;100.00;96279.88;1024932;29;20390;-50
2021/09/25 00:22:10;;;;;;;19.75;15.48;;;;;;;8.90;100.00;96296.06;1028757;28;20408;-49
2021/09/25 00:22:40;;;;;;;17.65;15.45;;;;;;;8.89;100.00;96299.59;1032679;28;20270;-51
2021/09/25 00:23:11;;;;;;;20.48;15.65;;;;;;;8.87;100.00;96299.66;1028651;28;20022;-50
2021/09/25 00:23:42;;;;;;;18.98;15.73;;;;;;;8.88;100.00;96305.75;1024939;29;20260;-49
2021/09/25 00:24:13;;;;;;;19.95;15.73;;;;;;;8.83;100.00;96298.16;1024726;29;20062;-50
2021/09/25 00:24:44;;;;;;;21.05;15.68;;;;;;;8.82;100.00;96300.88;1025262;28;20068;-51
2021/09/25 00:25:15;;;;;;;17.95;15.43;;;;;;;8.82;100.00;96306.09;1025281;28;20796;-50
2021/09/25 00:25:45;;;;;;;19.27;15.43;;;;;;;8.83;100.00;96299.97;1025641;28;20569;-49
2021/09/25 00:26:16;;;;;;;22.42;16.67;;;;;;;8.83;100.00;96299.97;1033118;28;20022;-51
2021/09/25 00:26:47;;;;;;;20.77;15.70;;;;;;;8.81;100.00;96302.66;1029184;28;20042;-49
2021/09/25 00:27:17;;;;;;;19.60;15.20;;;;;;;8.86;100.00;96305.84;1029028;28;20109;-50
2021/09/25 00:27:48;;;;;;;20.33;16.25;;;;;;;8.86;100.00;96302.38;1032933;28;20057;-49
2021/09/25 00:28:19;;;;;;;19.52;16.00;;;;;;;8.82;100.00;96306.09;1032995;28;20015;-51
2021/09/25 00:28:49;;;;;;;21.17;16.33;;;;;;;8.82;100.00;96306.97;1032559;28;20026;-50
2021/09/25 00:29:21;;;;;;;15.80;13.95;;;;;;;8.87;100.00;96301.44;1025174;28;20556;-50
2021/09/25 00:29:51;;;;;;;18.08;14.95;;;;;;;8.89;100.00;96307.44;1024991;28;20112;-49
2021/09/25 00:30:22;;;;;;;17.73;14.38;;;;;;;8.91;100.00;96301.16;1029300;28;20590;-50
2021/09/25 00:30:53;;;;;;;17.25;14.13;;;;;;;8.92;100.00;96304.66;1033167;28;20022;-50
2021/09/25 00:31:24;;;;;;;18.05;13.82;;;;;;;8.97;100.00;96309.59;1037135;28;20623;-49
2021/09/25 00:31:54;;;;;;;18.13;14.23;;;;;;;8.99;100.00;96312.97;1037376;28;20026;-50
2021/09/25 00:32:25;;;;;;;17.13;14.02;;;;;;;9.03;100.00;96314.47;1036732;28;20104;-49
2021/09/25 00:32:56;;;;;;;17.63;13.70;;;;;;;9.06;100.00;96307.28;1032570;28;20022;-50
2021/09/25 00:33:27;;;;;;;16.98;13.65;;;;;;;9.06;100.00;96307.28;1028885;28;20022;-51
2021/09/25 00:33:57;;;;;;;17.38;13.38;;;;;;;9.08;100.00;96304.59;1025314;28;20079;-49
2021/09/25 00:34:28;;;;;;;15.70;14.00;;;;;;;9.10;100.00;96305.34;1029238;28;20022;-50
2021/09/25 00:34:59;;;;;;;18.48;14.23;;;;;;;9.09;100.00;96307.13;1032833;28;20018;-51
2021/09/25 00:35:30;;;;;;;15.98;13.10;;;;;;;9.11;100.00;96305.25;1032761;28;20042;-50
2021/09/25 00:36:00;;;;;;;18.20;13.90;;;;;;;9.13;100.00;96313.00;1028745;28;20023;-50
2021/09/25 00:36:31;;;;;;;16.45;14.35;;;;;;;9.09;100.00;96309.72;1032611;28;20030;-50
2021/09/25 00:37:02;;;;;;;15.82;12.85;;;;;;;9.09;100.00;96307.13;1032616;28;20056;-50
2021/09/25 00:37:32;;;;;;;14.63;12.73;;;;;;;9.10;100.00;96303.59;1033192;28;20015;-50
2021/09/25 00:38:03;;;;;;;15.30;12.68;;;;;;;9.13;100.00;96303.38;1032666;28;20049;-50
2021/09/25 00:38:36;;;;;;;15.50;13.38;;;;;;;9.13;100.00;96303.38;1028940;28;20023;-50
2021/09/25 00:39:07;;;;;;;16.48;13.45;;;;;;;9.12;100.00;96301.72;1028702;28;20027;-50
2021/09/25 00:39:38;;;;;;;15.52;12.25;;;;;;;9.11;100.00;96301.81;1036421;28;20367;-49
2021/09/25 00:40:10;;;;;;;15.07;13.02;;;;;;;9.14;100.00;96296.38;1036396;28;20101;-50
2021/09/25 00:40:41;;;;;;;14.98;12.75;;;;;;;9.13;100.00;96298.16;1032762;28;20165;-50
2021/09/25 00:41:12;;;;;;;18.05;14.00;;;;;;;9.17;100.00;96304.03;1029005;28;20322;-50
2021/09/25 00:41:43;;;;;;;16.63;13.00;;;;;;;9.20;100.00;96297.81;1024740;29;20298;-49
2021/09/25 00:42:14;;;;;;;15.25;13.05;;;;;;;9.20;100.00;96297.81;1024528;29;20058;-50
2021/09/25 00:42:45;;;;;;;16.70;13.52;;;;;;;9.19;100.00;96304.78;1031988;28;20148;-49
2021/09/25 00:43:16;;;;;;;15.32;12.85;;;;;;;9.20;100.00;96296.03;1032042;28;20053;-49
2021/09/25 00:43:47;;;;;;;16.30;13.35;;;;;;;9.17;100.00;96297.97;1033459;28;20265;-49
2021/09/25 00:44:19;;;;;;;17.75;13.77;;;;;;;9.15;100.00;96292.84;1041427;28;20529;-50
2021/09/25 00:44:50;;;;;;;17.17;13.05;;;;;;;9.12;100.00;96296.50;1040796;28;20028;-50
2021/09/25 00:45:22;;;;;;;14.10;12.57;;;;;;;9.10;100.00;96297.50;1040701;28;20263;-50
2021/09/25 00:45:53;;;;;;;16.27;13.18;;;;;;;9.07;100.00;96295.91;1041105;28;20408;-50
2021/09/25 00:46:23;;;;;;;15.02;12.75;;;;;;;9.05;100.00;96291.72;1041795;28;20316;-50
2021/09/25 00:46:56;;;;;;;16.40;13.57;;;;;;;9.07;100.00;96295.06;1036896;28;20018;-51
2021/09/25 00:47:27;;;;;;;15.93;13.60;;;;;;;9.01;100.00;96288.44;1037039;28;20053;-50
2021/09/25 00:47:57;;;;;;;18.88;14.65;;;;;;;9.01;100.00;96290.19;1036857;28;20299;-50
2021/09/25 00:48:28;;;;;;;18.73;14.60;;;;;;;8.98;100.00;96291.22;1029563;28;20038;-49
2021/09/25 00:48:58;;;;;;;16.73;13.77;;;;;;;8.94;100.00;96287.09;1028505;28;20011;-50
2021/09/25 00:49:29;;;;;;;19.23;15.18;;;;;;;8.91;100.00;96287.28;1028901;28;20034;-50
2021/09/25 00:50:00;;;;;;;17.73;14.75;;;;;;;8.91;100.00;96279.44;1028952;28;20098;-49
2021/09/25 00:50:31;;;;;;;20.35;15.05;;;;;;;8.88;100.00;96285.69;1029361;28;20073;-50
2021/09/25 00:51:01;;;;;;;16.48;14.48;;;;;;;8.89;100.00;96289.97;1032852;28;20341;-51
2021/09/25 00:51:32;;;;;;;18.90;15.65;;;;;;;8.85;100.00;96291.09;1036987;28;20030;-50
2021/09/25 00:52:03;;;;;;;18.52;15.52;;;;;;;8.82;100.00;96288.66;1032863;28;20098;-50
2021/09/25 00:52:34;;;;;;;22.73;15.95;;;;;;;8.79;100.00;96293.22;1028626;28;20062;-50
2021/09/25 00:53:04;;;;;;;17.20;15.05;;;;;;;8.79;100.00;96296.66;1028659;28;20039;-49
2021/09/25 00:53:35;;;;;;;16.85;14.57;;;;;;;8.79;100.00;96293.22;1033168;28;20077;-50
2021/09/25 00:54:06;;;;;;;17.73;15.00;;;;;;;8.80;100.00;96294.91;1040769;28;20445;-49
2021/09/25 00:54:37;;;;;;;21.15;15.85;;;;;;;8.78;100.00;96294.16;1037099;28;20260;-50
2021/09/25 00:55:08;;;;;;;18.60;15.27;;;;;;;8.76;100.00;96296.84;1036628;28;20064;-49
2021/09/25 00:55:39;;;;;;;17.48;14.52;;;;;;;8.74;100.00;96293.47;1032602;28;20496;-51
2021/09/25 00:56:11;;;;;;;16.58;14.20;;;;;;;8.77;100.00;96302.94;1028604;28;20270;-51
2021/09/25 00:56:43;;;;;;;17.35;15.15;;;;;;;8.77;100.00;96303.75;1028703;28;20297;-50
2021/09/25 00:57:14;;;;;;;19.83;14.50;;;;;;;8.75;100.00;96296.00;1028821;28;20314;-51
2021/09/25 00:57:45;;;;;;;19.65;14.80;;;;;;;8.77;100.00;96292.47;1024724;29;20690;-50
2021/09/25 00:58:16;;;;;;;18.40;14.82;;;;;;;8.73;100.00;96303.09;1025387;28;20019;-50
2021/09/25 00:58:46;;;;;;;16.90;14.60;;;;;;;8.73;100.00;96299.66;1025210;28;20436;-50
2021/09/25 00:59:18;;;;;;;16.90;14.15;;;;;;;8.77;100.00;96301.16;1033099;28;20296;-50
2021/09/25 00:59:50;;;;;;;17.95;14.63;;;;;;;8.78;100.00;96297.59;1032505;28;20463;-50
2021/09/25 01:00:21;;;;;;;19.35;14.20;;;;;;;8.82;100.00;96298.25;1028431;28;20270;-50
2021/09/25 01:00:52;;;;;;;18.58;14.77;;;;;;;8.85;100.00;96295.47;1028945;28;20304;-50
2021/09/25 01:01:22;;;;;;;18.55;14.25;;;;;;;8.87;100.00;96296.22;1033122;28;20105;-50
2021/09/25 01:01:53;;;;;;;16.55;13.20;;;;;;;8.88;100.00;96296.16;1028885;28;20114;-49
2021/09/25 01:02:24;;;;;;;16.20;14.10;;;;;;;8.88;100.00;96297.94;1033205;28;20059;-48
2021/09/25 01:02:55;;;;;;;18.35;14.32;;;;;;;8.88;100.00;96293.53;1036733;28;20022;-49
2021/09/25 01:03:26;;;;;;;18.38;13.90;;;;;;;8.85;100.00;96288.47;1032929;28;20443;-50
2021/09/25 01:03:57;;;;;;;18.08;13.45;;;;;;;8.85;100.00;96293.69;1036664;28;20484;-50
2021/09/25 01:04:27;;;;;;;18.33;14.90;;;;;;;8.83;100.00;96294.72;1024798;28;20109;-50
2021/09/25 01:04:58;;;;;;;18.10;14.90;;;;;;;8.82;100.00;96298.25;1024886;28;20015;-49
2021/09/25 01:05:29;;;;;;;18.17;13.73;;;;;;;8.81;100.00;96296.59;1028901;28;20019;-50
2021/09/25 01:06:00;;;;;;;17.75;14.00;;;;;;;8.80;100.00;96302.72;1028864;28;20254;-49
2021/09/25 01:06:31;;;;;;;18.83;15.57;;;;;;;8.74;100.00;96301.31;1036817;28;20013;-49
2021/09/25 01:07:02;;;;;;;16.98;14.25;;;;;;;8.78;100.00;96301.97;1036807;28;20356;-50
2021/09/25 01:07:33;;;;;;;17.05;14.15;;;;;;;8.79;100.00;96299.28;1033378;28;20026;-51
2021/09/25 01:08:03;;;;;;;17.30;14.38;;;;;;;8.79;100.00;96298.47;1036728;28;20032;-50
2021/09/25 01:08:34;;;;;;;18.48;14.98;;;;;;;8.77;100.00;96295.91;1036505;28;20296;-50
2021/09/25 01:09:06;;;;;;;17.38;13.98;;;;;;;8.78;100.00;96291.53;1032973;28;20022;-51
2021/09/25 01:09:36;;;;;;;18.48;14.43;;;;;;;8.79;100.00;96293.22;1028762;28;20031;-51
2021/09/25 01:10:07;;;;;;;19.42;15.20;;;;;;;8.79;100.00;96295.84;1028907;28;20325;-50
2021/09/25 01:10:39;;;;;;;17.25;15.00;;;;;;;8.75;100.00;96290.78;1029402;28;20023;-53
2021/09/25 01:11:10;;;;;;;20.88;14.82;;;;;;;8.77;100.00;96295.09;1029052;28;20520;-50
2021/09/25 01:11:41;;;;;;;16.27;13.88;;;;;;;8.78;100.00;96294.16;1028834;28;20324;-51
2021/09/25 01:12:11;;;;;;;19.25;14.73;;;;;;;8.77;100.00;96295.09;1025288;28;20480;-50
2021/09/25 01:12:42;;;;;;;18.00;13.90;;;;;;;8.77;100.00;96292.47;1024961;28;20034;-50
2021/09/25 01:13:13;;;;;;;18.00;14.43;;;;;;;8.75;100.00;96287.34;1028784;28;20026;-49
2021/09/25 01:13:44;;;;;;;17.00;14.30;;;;;;;8.73;100.00;96291.81;1033054;28;20057;-49
2021/09/25 01:14:15;;;;;;;18.85;14.95;;;;;;;8.74;100.00;96291.69;1032873;28;20262;-50
2021/09/25 01:14:45;;;;;;;17.42;15.18;;;;;;;8.72;100.00;96290.13;1036907;28;20029;-50
2021/09/25 01:15:16;;;;;;;18.02;14.77;;;;;;;8.72;100.00;96293.56;1036739;28;20093;-49
2021/09/25 01:15:47;;;;;;;17.77;14.50;;;;;;;8.72;100.00;96287.50;1036696;28;20029;-51
2021/09/25 01:16:18;;;;;;;20.58;15.10;;;;;;;8.71;100.00;96294.50;1028583;28;20274;-50
2021/09/25 01:16:49;;;;;;;16.02;13.13;;;;;;;8.70;100.00;96292.81;1028947;28;20079;-50
2021/09/25 01:17:21;;;;;;;17.55;14.43;;;;;;;8.69;100.00;96296.38;1024824;29;20022;-51
2021/09/25 01:17:52;;;;;;;17.90;13.68;;;;;;;8.68;100.00;96292.06;1025443;28;20664;-49
2021/09/25 01:18:23;;;;;;;17.05;14.18;;;;;;;8.69;100.00;96290.28;1032833;28;20266;-50
2021/09/25 01:18:53;;;;;;;18.05;14.10;;;;;;;8.68;100.00;96292.06;1025165;28;20058;-50
2021/09/25 01:19:24;;;;;;;20.92;14.50;;;;;;;8.66;100.00;96295.69;1028620;28;20051;-50
2021/09/25 01:19:55;;;;;;;16.85;13.65;;;;;;;8.65;100.00;96296.63;1032449;28;20113;-50
2021/09/25 01:20:25;;;;;;;18.30;14.27;;;;;;;8.63;100.00;96294.09;1032742;28;20022;-50
2021/09/25 01:21:08;;;;;;;17.25;14.55;;;;;;;8.63;100.00;96291.47;1032992;28;20053;-49
2021/09/25 01:21:38;;;;;;;16.98;14.02;;;;;;;8.62;100.00;96299.41;1030456;28;20049;-50
2021/09/25 01:22:09;;;;;;;16.67;14.02;;;;;;;8.61;100.00;96295.94;1026181;28;20326;-51
2021/09/25 01:22:40;;;;;;;18.35;14.50;;;;;;;8.61;100.00;96303.78;1024866;29;20027;-50
2021/09/25 01:23:11;;;;;;;16.58;14.30;;;;;;;8.61;100.00;96293.34;1028182;28;20273;-50
2021/09/25 01:23:42;;;;;;;18.50;15.38;;;;;;;8.57;100.00;96300.50;1032803;28;20296;-50
2021/09/25 01:24:12;;;;;;;18.10;14.50;;;;;;;8.63;100.00;96301.91;1033096;28;20092;-49
2021/09/25 01:24:43;;;;;;;17.55;15.07;;;;;;;8.63;100.00;96299.31;1032607;28;20085;-50
2021/09/25 01:25:14;;;;;;;18.00;14.30;;;;;;;8.62;100.00;96302.03;1028436;28;20031;-50
2021/09/25 01:25:45;;;;;;;18.33;14.27;;;;;;;8.60;100.00;96299.50;1029141;28;20030;-50
2021/09/25 01:26:16;;;;;;;16.00;13.57;;;;;;;8.62;100.00;96300.25;1033454;28;20045;-51
2021/09/25 01:26:47;;;;;;;19.42;15.00;;;;;;;8.59;100.00;96297.81;1040811;28;20032;-51
2021/09/25 01:27:18;;;;;;;21.52;15.73;;;;;;;8.59;100.00;96302.19;1040845;28;20343;-51
2021/09/25 01:27:49;;;;;;;16.35;13.80;;;;;;;8.62;100.00;96296.81;1036637;28;20021;-49
2021/09/25 01:28:20;;;;;;;17.83;14.48;;;;;;;8.64;100.00;96300.16;1036427;28;20333;-50
2021/09/25 01:28:51;;;;;;;16.85;13.95;;;;;;;8.61;100.00;96301.16;1028546;28;20766;-49
2021/09/25 01:29:22;;;;;;;18.95;15.15;;;;;;;8.55;100.00;96301.53;1024595;28;20023;-51
2021/09/25 01:29:53;;;;;;;17.88;14.48;;;;;;;8.53;100.00;96304.22;1032386;28;20811;-49
2021/09/25 01:30:23;;;;;;;18.35;15.07;;;;;;;8.57;100.00;96300.50;1024848;29;20329;-51
2021/09/25 01:30:54;;;;;;;17.73;14.98;;;;;;;8.60;100.00;96299.50;1024784;28;20122;-50
2021/09/25 01:31:25;;;;;;;17.80;14.43;;;;;;;8.60;100.00;96299.50;1028657;28;20441;-49
2021/09/25 01:31:56;;;;;;;16.77;14.13;;;;;;;8.60;100.00;96294.28;1028899;28;20023;-50
2021/09/25 01:32:27;;;;;;;16.60;14.20;;;;;;;8.58;100.00;96293.53;1032934;28;20026;-50
2021/09/25 01:32:58;;;;;;;17.92;14.90;;;;;;;8.56;100.00;96296.22;1028319;28;20109;-50
2021/09/25 01:33:31;;;;;;;21.48;15.40;;;;;;;8.56;100.00;96295.38;1024903;28;20334;-48
2021/09/25 01:34:01;;;;;;;19.20;15.40;;;;;;;8.55;100.00;96291.06;1024474;29;20318;-51
2021/09/25 01:34:33;;;;;;;18.92;15.23;;;;;;;8.54;100.00;96295.47;1025969;28;20745;-49
2021/09/25 01:35:05;;;;;;;19.75;15.65;;;;;;;8.54;100.00;96286.81;1029034;28;20354;-49
2021/09/25 01:35:35;;;;;;;21.05;15.50;;;;;;;8.53;100.00;96291.16;1033685;28;20261;-50
2021/09/25 01:36:06;;;;;;;17.42;14.43;;;;;;;8.55;100.00;96288.47;1036881;28;20273;-50
2021/09/25 01:36:37;;;;;;;18.00;15.25;;;;;;;8.55;100.00;96296.31;1033048;28;20033;-50
2021/09/25 01:37:08;;;;;;;17.85;15.23;;;;;;;8.54;100.00;96294.63;1032532;28;20392;-49
2021/09/25 01:37:40;;;;;;;20.10;16.38;;;;;;;8.56;100.00;96293.59;1032450;28;20270;-50
2021/09/25 01:38:11;;;;;;;19.83;15.07;;;;;;;8.54;100.00;96294.63;1028626;28;20058;-51
2021/09/25 01:38:42;;;;;;;18.73;15.43;;;;;;;8.56;100.00;96295.38;1036919;28;20758;-49
2021/09/25 01:39:12;;;;;;;17.20;14.45;;;;;;;8.53;100.00;96288.53;1028636;28;20034;-50
2021/09/25 01:39:43;;;;;;;20.00;15.27;;;;;;;8.53;100.00;96303.38;1029197;28;20270;-49
2021/09/25 01:40:15;;;;;;;17.33;15.00;;;;;;;8.50;100.00;96295.72;1032572;28;20054;-51
2021/09/25 01:40:46;;;;;;;21.42;16.38;;;;;;;8.46;100.00;96296.81;1029246;28;20042;-50
2021/09/25 01:41:16;;;;;;;21.10;16.05;;;;;;;8.46;100.00;96295.03;1032462;28;20280;-50
2021/09/25 01:41:47;;;;;;;18.65;14.70;;;;;;;8.45;100.00;96292.53;1028987;28;20040;-50
2021/09/25 01:42:18;;;;;;;21.00;15.15;;;;;;;8.44;100.00;96289.06;1028908;28;20022;-51
2021/09/25 01:42:48;;;;;;;18.92;15.55;;;;;;;8.48;100.00;96298.41;1028647;28;20046;-50
2021/09/25 01:43:20;;;;;;;17.38;15.10;;;;;;;8.51;100.00;96298.25;1024737;28;20110;-49
2021/09/25 01:43:50;;;;;;;18.42;15.10;;;;;;;8.50;100.00;96295.72;1028951;28;20027;-51
2021/09/25 01:44:23;;;;;;;17.15;14.35;;;;;;;8.51;100.00;96295.63;1028762;28;20340;-51
2021/09/25 01:44:53;;;;;;;22.30;15.88;;;;;;;8.54;100.00;96298.09;1033003;28;20093;-50
2021/09/25 01:45:24;;;;;;;18.48;15.35;;;;;;;8.55;100.00;96304.97;1028513;28;20353;-49
2021/09/25 01:45:55;;;;;;;15.60;13.20;;;;;;;8.54;100.00;96298.09;1028643;28;20019;-50
2021/09/25 01:46:26;;;;;;;16.90;14.48;;;;;;;8.55;100.00;96296.31;1029230;28;20019;-50
2021/09/25 01:46:58;;;;;;;18.40;14.93;;;;;;;8.57;100.00;96295.28;1024786;28;20016;-50
2021/09/25 01:47:29;;;;;;;21.58;14.65;;;;;;;8.60;100.00;96299.50;1032567;28;20026;-49
2021/09/25 01:47:59;;;;;;;22.13;15.50;;;;;;;8.62;100.00;96295.03;1032445;28;20285;-49
2021/09/25 01:48:30;;;;;;;17.63;14.82;;;;;;;8.63;100.00;96301.91;1028808;28;20417;-49
2021/09/25 01:49:01;;;;;;;16.73;14.93;;;;;;;8.63;100.00;96293.25;1028627;28;20042;-51
2021/09/25 01:49:31;;;;;;;16.55;13.32;;;;;;;8.59;100.00;96295.19;1024708;28;20015;-49
2021/09/25 01:50:03;;;;;;;18.52;14.80;;;;;;;8.55;100.00;96297.13;1032556;28;20026;-50
2021/09/25 01:50:34;;;;;;;17.70;14.90;;;;;;;8.57;100.00;96299.66;1028667;28;20027;-49
2021/09/25 01:51:05;;;;;;;18.67;15.50;;;;;;;8.50;100.00;96287.88;1029298;28;20258;-49
2021/09/25 01:51:36;;;;;;;17.90;15.20;;;;;;;8.54;100.00;96298.09;1028701;28;20031;-48
2021/09/25 01:52:07;;;;;;;16.60;14.75;;;;;;;8.59;100.00;96297.81;1025238;28;20313;-49
2021/09/25 01:52:38;;;;;;;16.40;14.63;;;;;;;8.60;100.00;96301.28;1028659;28;20818;-50
2021/09/25 01:53:08;;;;;;;16.80;15.00;;;;;;;8.61;100.00;96295.94;1028275;28;20465;-51
2021/09/25 01:53:40;;;;;;;20.65;15.45;;;;;;;8.60;100.00;96299.50;1032639;28;20050;-49
2021/09/25 01:54:11;;;;;;;18.85;16.10;;;;;;;8.56;100.00;96293.59;1032731;28;20042;-50
2021/09/25 01:54:42;;;;;;;20.38;15.80;;;;;;;8.57;100.00;96299.66;1033282;28;20285;-50
2021/09/25 01:55:12;;;;;;;20.15;15.75;;;;;;;8.59;100.00;96294.34;1032496;28;20273;-50
2021/09/25 01:55:43;;;;;;;17.67;14.18;;;;;;;8.60;100.00;96301.28;1028637;28;20046;-49
2021/09/25 01:56:15;;;;;;;16.90;14.20;;;;;;;8.59;100.00;96294.34;1020542;29;20027;-50
2021/09/25 01:56:46;;;;;;;19.73;15.57;;;;;;;8.54;100.00;96290.25;1020844;29;20658;-49
2021/09/25 01:57:18;;;;;;;19.52;16.13;;;;;;;8.56;100.00;96298.00;1024968;28;20614;-50
2021/09/25 01:57:48;;;;;;;19.83;15.95;;;;;;;8.53;100.00;96292.94;1021280;28;20777;-49
2021/09/25 01:58:19;;;;;;;17.15;14.52;;;;;;;8.54;100.00;96294.63;1029084;28;20361;-50
2021/09/25 01:58:50;;;;;;;17.38;14.57;;;;;;;8.52;100.00;96296.47;1032350;28;20052;-49
2021/09/25 01:59:20;;;;;;;18.33;14.00;;;;;;;8.50;100.00;96300.94;1028287;28;20078;-49
2021/09/25 01:59:51;;;;;;;17.58;15.50;;;;;;;8.50;100.00;96295.72;1027773;28;20772;-49
2021/09/25 02:00:24;;;;;;;16.65;14.90;;;;;;;8.51;100.00;96294.78;1023753;28;20114;-50
2021/09/25 02:00:55;;;;;;;17.65;14.57;;;;;;;8.51;100.00;96292.19;1024533;28;20090;-51
2021/09/25 02:01:25;;;;;;;17.45;14.88;;;;;;;8.49;100.00;96289.66;1028242;28;20293;-49
2021/09/25 02:01:56;;;;;;;20.23;15.88;;;;;;;8.47;100.00;96301.13;1032433;28;20102;-49
2021/09/25 02:02:27;;;;;;;18.63;15.40;;;;;;;8.44;100.00;96293.44;1024577;29;20027;-49
2021/09/25 02:02:58;;;;;;;18.58;15.68;;;;;;;8.45;100.00;96292.53;1019922;29;20075;-49
2021/09/25 02:03:28;;;;;;;18.80;15.77;;;;;;;8.43;100.00;96295.22;1028453;28;20079;-49
2021/09/25 02:03:59;;;;;;;17.05;14.13;;;;;;;8.41;100.00;96294.44;1032421;28;20038;-50
2021/09/25 02:04:30;;;;;;;18.60;14.80;;;;;;;8.41;100.00;96294.44;1028715;28;20047;-50
2021/09/25 02:05:00;;;;;;;19.48;15.57;;;;;;;8.39;100.00;96291.09;1020623;29;20643;-50
2021/09/25 02:05:31;;;;;;;18.83;14.88;;;;;;;8.37;100.00;96295.53;1024763;28;20101;-50
2021/09/25 02:06:03;;;;;;;18.42;14.77;;;;;;;8.38;100.00;96290.22;1024675;29;20015;-49
2021/09/25 02:06:34;;;;;;;20.60;16.70;;;;;;;8.36;100.00;96286.84;1025951;28;20645;-50
2021/09/25 02:07:05;;;;;;;20.17;15.35;;;;;;;8.37;100.00;96291.16;1030038;28;20235;-50
2021/09/25 02:07:36;;;;;;;18.52;16.23;;;;;;;8.39;100.00;96285.84;1021617;29;20020;-50
2021/09/25 02:08:06;;;;;;;18.73;15.88;;;;;;;8.37;100.00;96292.91;1029632;28;20282;-50
2021/09/25 02:08:38;;;;;;;18.90;16.17;;;;;;;8.43;100.00;96294.38;1025280;29;20083;-49
2021/09/25 02:09:09;;;;;;;16.85;13.90;;;;;;;8.46;100.00;96295.03;1029565;28;20311;-49
2021/09/25 02:09:40;;;;;;;18.13;15.57;;;;;;;8.43;100.00;96295.22;1029481;28;20313;-50
2021/09/25 02:10:11;;;;;;;17.88;15.13;;;;;;;8.41;100.00;96293.59;1025777;29;20072;-50
2021/09/25 02:10:42;;;;;;;18.63;15.38;;;;;;;8.38;100.00;96300.66;1029303;28;20019;-50
2021/09/25 02:11:12;;;;;;;20.25;15.52;;;;;;;8.38;100.00;96298.06;1033359;28;20276;-50
2021/09/25 02:11:43;;;;;;;17.92;14.90;;;;;;;8.41;100.00;96296.19;1029480;28;20023;-51
2021/09/25 02:12:14;;;;;;;17.23;14.82;;;;;;;8.43;100.00;96296.97;1025477;29;20636;-50
2021/09/25 02:12:45;;;;;;;19.58;15.18;;;;;;;8.42;100.00;96287.47;1025307;28;20031;-50
2021/09/25 02:13:16;;;;;;;16.40;14.52;;;;;;;8.44;100.00;96288.22;1025539;28;20019;-49
2021/09/25 02:13:47;;;;;;;18.67;14.40;;;;;;;8.44;100.00;96291.69;1029024;28;20294;-50
2021/09/25 02:14:17;;;;;;;18.92;14.98;;;;;;;8.43;100.00;96292.63;1025299;29;20449;-51
2021/09/25 02:14:48;;;;;;;18.70;15.18;;;;;;;8.41;100.00;96290.97;1029322;28;20054;-49
2021/09/25 02:15:19;;;;;;;18.95;15.00;;;;;;;8.38;100.00;96289.38;1029555;28;20023;-49
2021/09/25 02:15:49;;;;;;;19.65;15.38;;;;;;;8.40;100.00;96290.13;1037485;28;20441;-49
2021/09/25 02:16:20;;;;;;;18.10;14.73;;;;;;;8.45;100.00;96297.75;1033131;28;20030;-50
2021/09/25 02:16:50;;;;;;;16.60;13.75;;;;;;;8.46;100.00;96294.22;1029085;28;20022;-52
2021/09/25 02:17:21;;;;;;;19.45;14.70;;;;;;;8.36;100.00;96276.41;1025266;29;20039;-49
2021/09/25 02:17:52;;;;;;;18.10;14.98;;;;;;;8.44;100.00;96288.22;1029102;28;20023;-50
2021/09/25 02:18:23;;;;;;;17.30;14.73;;;;;;;8.48;100.00;96294.97;1029019;28;20098;-48
2021/09/25 02:18:54;;;;;;;18.90;14.80;;;;;;;8.50;100.00;96290.50;1029004;28;20211;-52
2021/09/25 02:19:24;;;;;;;19.40;15.13;;;;;;;8.49;100.00;96288.81;1028812;28;20266;-51
2021/09/25 02:19:55;;;;;;;18.83;14.65;;;;;;;8.46;100.00;96284.59;1029044;28;20153;-49
2021/09/25 02:20:26;;;;;;;17.88;14.85;;;;;;;8.48;100.00;96294.97;1025465;28;20123;-49
2021/09/25 02:20:57;;;;;;;18.15;15.13;;;;;;;8.45;100.00;96289.94;1025125;28;20333;-49
2021/09/25 02:21:28;;;;;;;21.08;14.82;;;;;;;8.44;100.00;96293.44;1021215;29;20027;-51
2021/09/25 02:21:58;;;;;;;17.95;14.73;;;;;;;8.43;100.00;96289.16;1029010;28;20117;-49
2021/09/25 02:22:29;;;;;;;18.13;14.35;;;;;;;8.41;100.00;96289.22;1029408;28;20023;-49